createdAt,value
2019-04-19T00:03:04.484Z,7.85
2019-04-19T00:08:49.373Z,7.37
2019-04-19T00:11:15.496Z,7.20
2019-04-19T00:13:36.619Z,8.68
2019-04-19T00:16:05.266Z,7.40
2019-04-19T00:18:37.905Z,9.38
2019-04-19T00:21:41.751Z,8.05
2019-04-19T00:23:55.286Z,8.13
2019-04-19T00:26:24.569Z,8.13
2019-04-19T00:28:57.394Z,9.20
2019-04-19T00:31:35.216Z,8.35
2019-04-19T00:33:55.967Z,8.55
2019-04-19T00:39:45.493Z,7.95
2019-04-19T00:45:49.509Z,9.05
2019-04-19T00:54:04.972Z,10.13
2019-04-19T00:56:34.913Z,9.43
2019-04-19T01:02:03.264Z,9.38
2019-04-19T01:04:30.236Z,8.93
2019-04-19T01:07:00.335Z,7.97
2019-04-19T01:09:38.310Z,8.55
2019-04-19T01:12:10.621Z,9.85
2019-04-19T01:14:36.602Z,8.38
2019-04-19T01:23:05.669Z,8.98
2019-04-19T01:25:32.194Z,8.43
2019-04-19T01:28:11.485Z,8.85
2019-04-19T01:33:45.793Z,8.38
2019-04-19T01:36:37.194Z,8.03
2019-04-19T01:39:19.206Z,8.90
2019-04-19T01:47:49.836Z,8.90
2019-04-19T01:50:38.164Z,8.60
2019-04-19T01:53:09.556Z,10.25
2019-04-19T01:55:25.846Z,9.45
2019-04-19T02:00:33.940Z,9.28
2019-04-19T02:05:45.996Z,10.05
2019-04-19T02:11:08.758Z,10.50
2019-04-19T02:13:38.150Z,9.60
2019-04-19T02:16:10.211Z,9.08
2019-04-19T02:18:35.470Z,9.45
2019-04-19T02:21:04.403Z,8.65
2019-04-19T02:23:36.888Z,9.40
2019-04-19T02:26:09.209Z,9.75
2019-04-19T02:28:37.827Z,9.55
2019-04-19T02:34:23.250Z,9.30
2019-04-19T02:39:38.620Z,9.60
2019-04-19T02:44:55.257Z,10.43
2019-04-19T02:47:18.051Z,9.85
2019-04-19T02:52:34.094Z,10.08
2019-04-19T02:58:06.648Z,9.80
2019-04-19T03:01:14.612Z,10.40
2019-04-19T03:03:32.575Z,11.03
2019-04-19T03:06:15.352Z,10.85
2019-04-19T03:08:14.502Z,9.43
2019-04-19T03:10:59.616Z,10.72
2019-04-19T03:13:25.893Z,9.38
2019-04-19T03:15:59.767Z,11.12
2019-04-19T03:18:29.437Z,10.30
2019-04-19T03:20:54.096Z,10.28
2019-04-19T03:23:21.804Z,10.85
2019-04-19T03:25:51.496Z,10.72
2019-04-19T03:28:23.440Z,10.58
2019-04-19T03:31:08.227Z,9.40
2019-04-19T03:36:02.466Z,10.45
2019-04-19T03:41:27.392Z,11.05
2019-04-19T03:43:47.208Z,11.38
2019-04-19T03:46:16.999Z,10.88
2019-04-19T03:48:49.504Z,10.93
2019-04-19T03:51:13.918Z,10.85
2019-04-19T03:53:50.400Z,12.00
2019-04-19T03:56:16.064Z,12.30
2019-04-19T03:58:30.370Z,11.20
2019-04-19T04:00:59.972Z,10.90
2019-04-19T04:03:35.771Z,11.43
2019-04-19T04:05:58.264Z,11.90
2019-04-19T04:11:51.099Z,12.07
2019-04-19T04:14:45.512Z,11.38
2019-04-19T04:17:16.439Z,10.03
2019-04-19T04:19:44.422Z,11.45
2019-04-19T04:22:18.102Z,10.35
2019-04-19T04:24:53.436Z,10.53
2019-04-19T04:27:27.980Z,10.68
2019-04-19T04:29:49.935Z,10.18
2019-04-19T04:32:19.601Z,11.43
2019-04-19T04:34:51.322Z,10.35
2019-04-19T04:37:24.795Z,10.75
2019-04-19T04:39:40.662Z,10.15
2019-04-19T04:42:19.129Z,11.30
2019-04-19T04:45:01.856Z,10.13
2019-04-19T04:47:43.266Z,9.83
2019-04-19T04:52:56.085Z,11.53
2019-04-19T04:55:43.664Z,10.50
2019-04-19T04:58:15.008Z,10.38
2019-04-19T05:00:45.242Z,10.25
2019-04-19T05:03:23.257Z,10.95
2019-04-19T05:05:55.355Z,10.00
2019-04-19T05:08:26.847Z,9.68
2019-04-19T05:10:48.828Z,10.10
2019-04-19T05:13:28.166Z,9.60
2019-04-19T05:16:02.102Z,8.78
2019-04-19T05:18:40.130Z,10.08
2019-04-19T05:20:53.301Z,10.95
2019-04-19T05:26:18.021Z,10.20
2019-04-19T05:28:33.493Z,10.68
2019-04-19T05:30:54.718Z,9.80
2019-04-19T05:33:30.810Z,9.23
2019-04-19T05:36:11.164Z,9.53
2019-04-19T05:39:00.034Z,9.40
2019-04-19T05:44:39.556Z,9.28
2019-04-19T05:47:10.368Z,9.20
2019-04-19T05:49:39.046Z,8.90
2019-04-19T05:52:08.246Z,8.80
2019-04-19T05:54:20.806Z,9.70
2019-04-19T05:56:54.639Z,9.50
2019-04-19T05:59:33.359Z,9.68
2019-04-19T06:02:02.606Z,10.05
2019-04-19T06:04:37.422Z,9.70
2019-04-19T06:07:08.334Z,8.80
2019-04-19T06:09:17.623Z,8.65
2019-04-19T06:11:48.355Z,9.33
2019-04-19T06:14:41.140Z,9.73
2019-04-19T06:17:22.786Z,9.98
2019-04-19T06:22:29.756Z,8.95
2019-04-19T06:24:56.886Z,9.28
2019-04-19T06:27:35.459Z,8.68
2019-04-19T06:30:06.006Z,9.75
2019-04-19T06:32:36.190Z,9.30
2019-04-19T06:34:54.088Z,9.10
2019-04-19T06:37:15.340Z,9.48
2019-04-19T06:39:39.491Z,8.90
2019-04-19T06:42:12.013Z,8.90
2019-04-19T06:44:56.253Z,8.90
2019-04-19T06:47:17.801Z,9.83
2019-04-19T06:49:37.717Z,8.50
2019-04-19T06:52:13.495Z,9.88
2019-04-19T06:54:41.171Z,10.10
2019-04-19T06:57:14.895Z,9.30
2019-04-19T06:59:52.102Z,9.35
2019-04-19T07:02:12.251Z,9.73
2019-04-19T07:04:52.670Z,9.90
2019-04-19T07:07:32.160Z,9.50
2019-04-19T07:10:14.160Z,10.10
2019-04-19T07:12:31.177Z,9.50
2019-04-19T07:14:53.431Z,9.95
2019-04-19T07:17:25.190Z,9.40
2019-04-19T07:19:55.029Z,8.98
2019-04-19T07:22:19.255Z,10.38
2019-04-19T07:25:05.156Z,10.03
2019-04-19T07:27:23.405Z,9.35
2019-04-19T07:29:36.424Z,9.83
2019-04-19T07:32:04.341Z,9.73
2019-04-19T07:34:48.107Z,9.50
2019-04-19T07:37:18.471Z,10.88
2019-04-19T07:40:00.282Z,9.65
2019-04-19T07:42:22.674Z,9.83
2019-04-19T07:44:45.268Z,10.28
2019-04-19T07:47:35.806Z,8.85
2019-04-19T07:50:01.345Z,9.05
2019-04-19T07:52:35.514Z,8.50
2019-04-19T08:00:56.408Z,8.45
2019-04-19T08:05:57.065Z,8.75
2019-04-19T08:10:55.516Z,8.90
2019-04-19T08:16:14.290Z,10.13
2019-04-19T08:31:23.634Z,8.75
2019-04-19T08:33:51.603Z,8.70
2019-04-19T08:36:31.335Z,9.10
2019-04-19T08:39:09.186Z,8.35
2019-04-19T08:41:31.625Z,8.23
2019-04-19T08:44:05.006Z,9.13
2019-04-19T08:46:38.839Z,8.13
2019-04-19T08:49:32.541Z,9.20
2019-04-19T08:52:00.037Z,9.97
2019-04-19T08:54:50.646Z,8.33
2019-04-19T08:57:04.811Z,6.63
2019-04-19T08:59:50.830Z,7.87
2019-04-19T09:02:16.521Z,7.20
2019-04-19T09:04:43.959Z,8.37
2019-04-19T09:09:51.908Z,7.67
2019-04-19T09:12:16.042Z,8.18
2019-04-19T09:14:47.976Z,7.70
2019-04-19T09:17:19.035Z,8.10
2019-04-19T09:20:00.989Z,7.10
2019-04-19T09:22:16.646Z,6.93
2019-04-19T09:24:39.797Z,7.00
2019-04-19T09:27:12.641Z,6.57
2019-04-19T09:29:45.662Z,6.67
2019-04-19T09:32:02.688Z,6.03
2019-04-19T09:34:26.203Z,6.47
2019-04-19T09:37:06.720Z,6.60
2019-04-19T09:39:39.775Z,7.40
2019-04-19T09:42:00.789Z,7.33
2019-04-19T09:44:42.734Z,6.23
2019-04-19T09:46:53.015Z,6.60
2019-04-19T09:49:37.646Z,6.30
2019-04-19T09:52:16.140Z,6.00
2019-04-19T09:54:48.610Z,6.23
2019-04-19T09:57:05.960Z,5.93
2019-04-19T09:59:27.845Z,5.83
2019-04-19T10:01:55.596Z,6.00
2019-04-19T10:04:42.053Z,5.10
2019-04-19T10:09:48.604Z,5.20
2019-04-19T10:12:15.355Z,5.27
2019-04-19T10:14:51.511Z,4.83
2019-04-19T10:19:56.971Z,4.70
2019-04-19T10:25:05.638Z,5.17
2019-04-19T10:27:35.473Z,5.63
2019-04-19T10:30:24.497Z,4.47
2019-04-19T10:33:12.743Z,5.07
2019-04-19T10:38:49.662Z,6.53
2019-04-19T10:44:23.196Z,4.80
2019-04-19T10:47:09.042Z,4.30
2019-04-19T10:50:11.905Z,6.73
2019-04-19T10:52:29.387Z,4.27
2019-04-19T10:58:07.378Z,4.03
2019-04-19T11:00:37.610Z,4.43
2019-04-19T11:03:06.705Z,3.80
2019-04-19T11:08:24.473Z,4.10
2019-04-19T11:10:53.810Z,4.07
2019-04-19T11:13:26.260Z,4.70
2019-04-19T11:15:52.138Z,4.70
2019-04-19T11:18:21.574Z,4.33
2019-04-19T11:20:52.853Z,3.93
2019-04-19T11:23:20.338Z,5.70
2019-04-19T11:25:52.101Z,4.03
2019-04-19T11:28:39.016Z,5.80
2019-04-19T11:31:25.951Z,6.50
2019-04-19T11:33:57.224Z,4.40
2019-04-19T11:36:25.912Z,3.50
2019-04-19T11:38:54.656Z,4.23
2019-04-19T11:42:01.416Z,4.33
2019-04-19T11:44:30.964Z,3.70
2019-04-19T11:47:00.344Z,3.43
2019-04-19T11:49:35.229Z,3.90
2019-04-19T11:52:00.679Z,4.03
2019-04-19T11:54:30.425Z,4.10
2019-04-19T11:57:07.165Z,3.47
2019-04-19T11:59:54.053Z,4.07
2019-04-19T12:02:40.066Z,4.00
2019-04-19T12:05:16.431Z,4.10
2019-04-19T12:07:38.825Z,5.03
2019-04-19T12:10:08.377Z,4.07
2019-04-19T12:15:50.741Z,5.23
2019-04-19T12:18:20.152Z,3.70
2019-04-19T12:20:49.627Z,4.43
2019-04-19T12:23:19.954Z,4.10
2019-04-19T12:25:48.287Z,4.40
2019-04-19T12:28:17.458Z,4.00
2019-04-19T12:30:51.469Z,3.93
2019-04-19T12:33:17.318Z,4.00
2019-04-19T12:35:45.616Z,4.67
2019-04-19T12:38:14.439Z,4.50
2019-04-19T12:43:32.045Z,4.47
2019-04-19T12:46:01.063Z,4.43
2019-04-19T12:48:30.160Z,4.70
2019-04-19T12:50:58.284Z,4.60
2019-04-19T12:53:28.655Z,4.17
2019-04-19T12:55:57.875Z,4.23
2019-04-19T12:58:28.025Z,4.43
2019-04-19T13:01:15.669Z,4.53
2019-04-19T13:04:02.579Z,4.70
2019-04-19T13:06:31.793Z,5.03
2019-04-19T13:08:59.617Z,4.23
2019-04-19T13:11:27.540Z,4.90
2019-04-19T13:13:55.395Z,4.60
2019-04-19T13:16:24.169Z,5.80
2019-04-19T13:18:54.268Z,4.53
2019-04-19T13:21:24.094Z,4.60
2019-04-19T13:23:52.744Z,4.77
2019-04-19T13:26:23.111Z,5.00
2019-04-19T13:28:53.328Z,5.03
2019-04-19T13:31:22.786Z,5.30
2019-04-19T13:33:51.282Z,5.73
2019-04-19T13:36:24.890Z,5.90
2019-04-19T13:39:13.118Z,5.50
2019-04-19T13:41:45.463Z,5.40
2019-04-19T13:44:14.603Z,5.50
2019-04-19T13:46:42.979Z,5.00
2019-04-19T13:49:10.822Z,5.73
2019-04-19T13:51:38.695Z,5.77
2019-04-19T13:54:07.000Z,6.20
2019-04-19T13:56:36.479Z,7.20
2019-04-19T13:59:05.824Z,4.90
2019-04-19T14:01:34.493Z,5.13
2019-04-19T14:04:03.649Z,5.50
2019-04-19T14:06:32.822Z,5.60
2019-04-19T14:09:00.792Z,4.70
2019-04-19T14:11:28.988Z,5.00
2019-04-19T14:13:59.979Z,5.13
2019-04-19T14:16:27.910Z,5.07
2019-04-19T14:18:56.137Z,4.83
2019-04-19T14:21:24.488Z,4.77
2019-04-19T14:23:53.710Z,7.13
2019-04-19T14:26:32.633Z,4.93
2019-04-19T14:28:51.488Z,5.00
2019-04-19T14:31:21.896Z,5.17
2019-04-19T14:33:50.916Z,4.67
2019-04-19T14:36:19.910Z,4.60
2019-04-19T14:38:48.210Z,3.70
2019-04-19T14:41:17.658Z,4.73
2019-04-19T14:43:48.118Z,5.17
2019-04-19T14:46:16.685Z,5.47
2019-04-19T14:48:45.204Z,4.90
2019-04-19T14:51:19.548Z,4.67
2019-04-19T14:53:44.920Z,5.37
2019-04-19T14:56:13.305Z,5.20
2019-04-19T14:58:41.141Z,7.63
2019-04-19T15:01:28.710Z,4.70
2019-04-19T15:06:49.488Z,5.70
2019-04-19T15:09:17.512Z,4.40
2019-04-19T15:11:45.639Z,4.03
2019-04-19T15:14:14.451Z,5.70
2019-04-19T15:16:43.282Z,4.00
2019-04-19T15:19:11.163Z,4.20
2019-04-19T15:21:39.033Z,4.37
2019-04-19T15:24:06.854Z,4.07
2019-04-19T15:26:34.719Z,4.20
2019-04-19T15:29:03.011Z,3.83
2019-04-19T15:31:32.352Z,4.10
2019-04-19T15:34:00.850Z,4.40
2019-04-19T15:36:29.843Z,4.10
2019-04-19T15:38:57.774Z,4.03
2019-04-19T15:41:26.199Z,4.30
2019-04-19T15:43:56.473Z,3.90
2019-04-19T15:46:25.980Z,4.33
2019-04-19T15:48:56.739Z,3.97
2019-04-19T15:51:27.924Z,3.80
2019-04-19T15:53:54.824Z,4.13
2019-04-19T15:56:24.436Z,4.00
2019-04-19T15:58:52.977Z,3.40
2019-04-19T16:04:01.731Z,3.77
2019-04-19T16:06:50.058Z,4.70
2019-04-19T16:09:37.588Z,3.40
2019-04-19T16:12:25.915Z,4.47
2019-04-19T16:14:54.162Z,3.97
2019-04-19T16:17:23.176Z,3.83
2019-04-19T16:19:51.594Z,4.30
2019-04-19T16:22:20.256Z,3.30
2019-04-19T16:24:49.274Z,4.00
2019-04-19T16:27:18.635Z,4.03
2019-04-19T16:29:50.788Z,3.60
2019-04-19T16:32:16.812Z,3.93
2019-04-19T16:35:05.641Z,3.80
2019-04-19T16:37:34.938Z,4.00
2019-04-19T16:40:04.353Z,4.20
2019-04-19T16:42:33.306Z,4.40
2019-04-19T16:45:01.901Z,4.50
2019-04-19T16:56:35.556Z,4.37
2019-04-19T16:59:06.244Z,4.63
2019-04-19T17:01:46.849Z,4.57
2019-04-19T17:04:15.638Z,3.80
2019-04-19T17:06:46.818Z,7.03
2019-04-19T17:09:15.366Z,4.60
2019-04-19T17:11:45.517Z,6.37
2019-04-19T17:14:16.913Z,4.33
2019-04-19T17:17:24.550Z,4.10
2019-04-19T17:20:12.982Z,4.60
2019-04-19T17:23:00.914Z,4.50
2019-04-19T17:25:37.137Z,5.37
2019-04-19T17:28:08.185Z,4.60
2019-04-19T17:30:40.057Z,3.80
2019-04-19T17:33:10.445Z,4.00
2019-04-19T17:38:29.999Z,4.40
2019-04-19T17:41:00.844Z,4.80
2019-04-19T17:43:37.571Z,4.67
2019-04-19T17:46:06.649Z,4.00
2019-04-19T17:48:46.870Z,4.37
2019-04-19T17:52:26.379Z,4.90
2019-04-19T17:55:06.053Z,4.50
2019-04-19T17:57:29.219Z,4.57
2019-04-19T17:59:58.489Z,4.67
2019-04-19T18:02:30.823Z,4.80
2019-04-19T18:05:04.129Z,5.07
2019-04-19T18:07:40.382Z,4.60
2019-04-19T18:10:10.217Z,4.87
2019-04-19T18:12:34.989Z,4.33
2019-04-19T18:15:03.694Z,5.70
2019-04-19T18:17:33.559Z,4.83
2019-04-19T18:20:08.755Z,5.30
2019-04-19T18:22:52.400Z,4.50
2019-04-19T18:25:07.599Z,5.33
2019-04-19T18:27:47.017Z,5.30
2019-04-19T18:30:13.633Z,4.70
2019-04-19T18:33:10.555Z,5.07
2019-04-19T18:35:40.531Z,4.90
2019-04-19T18:38:17.186Z,5.10
2019-04-19T18:40:41.297Z,4.90
2019-04-19T18:43:25.730Z,6.30
2019-04-19T18:45:44.276Z,5.77
2019-04-19T18:48:15.703Z,4.90
2019-04-19T18:50:48.512Z,5.30
2019-04-19T18:53:27.179Z,5.20
2019-04-19T18:55:49.033Z,5.97
2019-04-19T18:58:30.237Z,5.20
2019-04-19T19:00:57.024Z,5.33
2019-04-19T19:03:35.097Z,5.10
2019-04-19T19:06:01.737Z,5.07
2019-04-19T19:08:45.941Z,5.10
2019-04-19T19:11:12.018Z,5.10
2019-04-19T19:14:09.869Z,5.12
2019-04-19T19:16:31.771Z,5.27
2019-04-19T19:19:02.679Z,7.00
2019-04-19T19:21:36.303Z,10.13
2019-04-19T19:24:25.100Z,9.08
2019-04-19T19:26:49.855Z,12.90
2019-04-19T19:29:07.737Z,15.55
2019-04-19T19:31:36.768Z,12.95
2019-04-19T19:34:09.645Z,12.35
2019-04-19T19:36:46.595Z,13.62
2019-04-19T19:39:18.395Z,9.43
2019-04-19T19:42:32.612Z,11.63
2019-04-19T19:44:37.506Z,10.15
2019-04-19T19:47:47.840Z,9.13
2019-04-19T19:50:18.171Z,7.95
2019-04-19T19:52:47.758Z,7.72
2019-04-19T19:55:13.791Z,10.23
2019-04-19T19:57:39.533Z,9.28
2019-04-19T20:00:04.349Z,8.05
2019-04-19T20:02:42.031Z,7.78
2019-04-19T20:04:59.572Z,8.65
2019-04-19T20:07:32.595Z,5.92
2019-04-19T20:10:06.773Z,6.25
2019-04-19T20:12:35.543Z,5.60
2019-04-19T20:15:04.577Z,6.45
2019-04-19T20:17:33.261Z,4.97
2019-04-19T20:20:04.626Z,6.05
2019-04-19T20:22:53.884Z,4.90
2019-04-19T20:25:34.652Z,5.00
2019-04-19T20:27:56.560Z,5.90
2019-04-19T20:30:25.542Z,6.05
2019-04-19T20:32:58.833Z,5.87
2019-04-19T20:35:26.309Z,5.42
2019-04-19T20:37:58.862Z,6.60
2019-04-19T20:40:26.153Z,6.15
2019-04-19T20:43:14.782Z,5.50
2019-04-19T20:45:32.618Z,5.30
2019-04-19T20:47:57.049Z,5.55
2019-04-19T20:50:44.995Z,6.22
2019-04-19T20:53:19.723Z,6.22
2019-04-19T20:56:10.313Z,6.87
2019-04-19T20:58:24.230Z,6.50
2019-04-19T21:00:52.556Z,7.22
2019-04-19T21:03:28.357Z,8.80
2019-04-19T21:05:55.867Z,9.85
2019-04-19T21:08:27.251Z,8.40
2019-04-19T21:11:00.879Z,9.70
2019-04-19T21:13:29.262Z,8.08
2019-04-19T21:15:58.564Z,7.55
2019-04-19T21:18:28.883Z,6.03
2019-04-19T21:21:03.829Z,6.60
2019-04-19T21:23:30.500Z,7.53
2019-04-19T21:26:02.363Z,6.42
2019-04-19T21:28:41.773Z,5.97
2019-04-19T21:31:09.213Z,6.55
2019-04-19T21:33:47.470Z,6.45
2019-04-19T21:36:15.101Z,6.22
2019-04-19T21:38:47.700Z,6.60
2019-04-19T21:41:21.676Z,6.70
2019-04-19T21:43:48.215Z,7.00
2019-04-19T21:46:21.356Z,5.85
2019-04-19T21:49:14.569Z,6.62
2019-04-19T21:51:42.525Z,6.30
2019-04-19T21:54:14.582Z,6.58
2019-04-19T21:56:52.642Z,6.60
2019-04-19T21:59:30.231Z,5.87
2019-04-19T22:01:52.926Z,6.17
2019-04-19T22:04:23.600Z,6.20
2019-04-19T22:06:54.780Z,6.70
2019-04-19T22:09:25.457Z,6.08
2019-04-19T22:12:04.160Z,6.55
2019-04-19T22:14:34.228Z,5.83
2019-04-19T22:17:09.879Z,6.80
2019-04-19T22:19:37.341Z,6.42
2019-04-19T22:22:15.369Z,6.22
2019-04-19T22:24:41.222Z,6.53
2019-04-19T22:27:11.997Z,6.50
2019-04-19T22:29:41.756Z,6.50
2019-04-19T22:32:15.740Z,5.75
2019-04-19T22:34:44.268Z,6.42
2019-04-19T22:37:30.135Z,7.40
2019-04-19T22:39:56.220Z,6.25
2019-04-19T22:42:26.758Z,5.60
2019-04-19T22:44:56.674Z,6.20
2019-04-19T22:47:29.059Z,6.10
2019-04-19T22:49:55.682Z,6.42
2019-04-19T22:52:24.890Z,6.67
2019-04-19T22:55:03.166Z,7.00
2019-04-19T22:57:38.016Z,7.05
2019-04-19T23:00:00.013Z,6.25
2019-04-19T23:02:50.132Z,5.62
2019-04-19T23:05:25.114Z,6.87
2019-04-19T23:07:55.724Z,6.95
2019-04-19T23:10:32.692Z,6.47
2019-04-19T23:12:57.473Z,6.97
2019-04-19T23:15:29.608Z,6.05
2019-04-19T23:17:58.527Z,6.67
2019-04-19T23:20:33.189Z,6.60
2019-04-19T23:23:03.027Z,6.75
2019-04-19T23:25:38.183Z,5.83
2019-04-19T23:28:16.568Z,6.50
2019-04-19T23:30:51.611Z,6.25
2019-04-19T23:33:24.515Z,6.92
2019-04-19T23:35:53.328Z,6.47
2019-04-19T23:38:27.325Z,6.87
2019-04-19T23:40:59.328Z,6.87
2019-04-19T23:43:34.220Z,6.10
2019-04-19T23:45:58.717Z,6.60
2019-04-19T23:48:31.901Z,5.87
2019-04-19T23:51:04.409Z,6.50
2019-04-19T23:53:44.687Z,6.53
2019-04-19T23:56:25.987Z,6.70
2019-04-19T23:58:46.140Z,7.00
